sensor_id;sensor_type;location;lat;lon;timestamp;temperature;humidity
21734;DHT22;11029;47.820;10.534;2023-08-24T00:01:50;20.50;70.60
21734;DHT22;11029;47.820;10.534;2023-08-24T00:04:16;20.50;70.60
21734;DHT22;11029;47.820;10.534;2023-08-24T00:06:43;20.40;70.50
21734;DHT22;11029;47.820;10.534;2023-08-24T00:09:10;20.30;70.70
21734;DHT22;11029;47.820;10.534;2023-08-24T00:11:37;20.20;71.00
21734;DHT22;11029;47.820;10.534;2023-08-24T00:14:03;20.20;71.00
21734;DHT22;11029;47.820;10.534;2023-08-24T00:16:30;20.30;71.00
21734;DHT22;11029;47.820;10.534;2023-08-24T00:18:57;20.30;71.20
21734;DHT22;11029;47.820;10.534;2023-08-24T00:21:24;20.20;70.80
21734;DHT22;11029;47.820;10.534;2023-08-24T00:23:51;20.20;70.40
21734;DHT22;11029;47.820;10.534;2023-08-24T00:26:18;20.10;70.20
21734;DHT22;11029;47.820;10.534;2023-08-24T00:28:44;20.10;70.20
21734;DHT22;11029;47.820;10.534;2023-08-24T00:31:12;20.10;70.50
21734;DHT22;11029;47.820;10.534;2023-08-24T00:33:39;20.10;71.10
21734;DHT22;11029;47.820;10.534;2023-08-24T00:36:07;20.10;71.50
21734;DHT22;11029;47.820;10.534;2023-08-24T00:38:34;20.10;71.60
21734;DHT22;11029;47.820;10.534;2023-08-24T00:41:01;20.10;71.00
21734;DHT22;11029;47.820;10.534;2023-08-24T00:43:28;20.00;71.80
21734;DHT22;11029;47.820;10.534;2023-08-24T00:45:56;20.00;70.80
21734;DHT22;11029;47.820;10.534;2023-08-24T00:48:25;20.00;70.10
21734;DHT22;11029;47.820;10.534;2023-08-24T00:50:59;19.90;70.10
21734;DHT22;11029;47.820;10.534;2023-08-24T00:53:27;19.90;70.20
21734;DHT22;11029;47.820;10.534;2023-08-24T00:55:54;19.80;70.50
21734;DHT22;11029;47.820;10.534;2023-08-24T00:58:21;19.70;70.10
21734;DHT22;11029;47.820;10.534;2023-08-24T01:00:52;19.70;70.20
21734;DHT22;11029;47.820;10.534;2023-08-24T01:03:23;19.70;70.60
21734;DHT22;11029;47.820;10.534;2023-08-24T01:05:51;19.70;70.60
21734;DHT22;11029;47.820;10.534;2023-08-24T01:08:20;19.50;70.60
21734;DHT22;11029;47.820;10.534;2023-08-24T01:11:07;19.50;71.10
21734;DHT22;11029;47.820;10.534;2023-08-24T01:13:48;19.50;71.20
21734;DHT22;11029;47.820;10.534;2023-08-24T01:16:19;19.50;70.50
21734;DHT22;11029;47.820;10.534;2023-08-24T01:18:48;19.40;70.50
21734;DHT22;11029;47.820;10.534;2023-08-24T01:21:17;19.40;70.90
21734;DHT22;11029;47.820;10.534;2023-08-24T01:30:43;19.30;71.00
21734;DHT22;11029;47.820;10.534;2023-08-24T01:33:10;19.30;70.30
21734;DHT22;11029;47.820;10.534;2023-08-24T01:35:39;19.30;70.60
21734;DHT22;11029;47.820;10.534;2023-08-24T01:38:06;19.30;70.80
21734;DHT22;11029;47.820;10.534;2023-08-24T01:43:29;19.20;70.30
21734;DHT22;11029;47.820;10.534;2023-08-24T01:46:08;19.20;70.70
21734;DHT22;11029;47.820;10.534;2023-08-24T01:48:36;19.00;71.40
21734;DHT22;11029;47.820;10.534;2023-08-24T01:51:04;19.00;71.70
21734;DHT22;11029;47.820;10.534;2023-08-24T01:53:31;18.90;71.80
21734;DHT22;11029;47.820;10.534;2023-08-24T01:55:58;18.80;72.20
21734;DHT22;11029;47.820;10.534;2023-08-24T01:58:25;18.80;71.60
21734;DHT22;11029;47.820;10.534;2023-08-24T02:00:52;18.90;71.50
21734;DHT22;11029;47.820;10.534;2023-08-24T02:03:19;18.90;71.70
21734;DHT22;11029;47.820;10.534;2023-08-24T02:05:46;18.90;71.20
21734;DHT22;11029;47.820;10.534;2023-08-24T02:08:13;19.00;70.60
21734;DHT22;11029;47.820;10.534;2023-08-24T02:10:40;19.00;70.80
21734;DHT22;11029;47.820;10.534;2023-08-24T02:13:06;18.90;70.70
21734;DHT22;11029;47.820;10.534;2023-08-24T02:15:33;18.70;71.00
21734;DHT22;11029;47.820;10.534;2023-08-24T02:18:00;18.60;71.40
21734;DHT22;11029;47.820;10.534;2023-08-24T02:20:27;18.50;72.70
21734;DHT22;11029;47.820;10.534;2023-08-24T02:22:54;18.50;73.10
21734;DHT22;11029;47.820;10.534;2023-08-24T02:25:20;18.50;73.10
21734;DHT22;11029;47.820;10.534;2023-08-24T02:27:47;18.60;73.10
21734;DHT22;11029;47.820;10.534;2023-08-24T02:30:16;18.60;73.30
21734;DHT22;11029;47.820;10.534;2023-08-24T02:32:42;18.60;73.10
21734;DHT22;11029;47.820;10.534;2023-08-24T02:35:09;18.60;72.70
21734;DHT22;11029;47.820;10.534;2023-08-24T02:37:36;18.70;72.60
21734;DHT22;11029;47.820;10.534;2023-08-24T02:40:03;18.70;71.80
21734;DHT22;11029;47.820;10.534;2023-08-24T02:42:31;18.70;71.60
21734;DHT22;11029;47.820;10.534;2023-08-24T02:44:58;18.60;71.60
21734;DHT22;11029;47.820;10.534;2023-08-24T02:47:25;18.60;71.00
21734;DHT22;11029;47.820;10.534;2023-08-24T02:49:52;18.70;71.00
21734;DHT22;11029;47.820;10.534;2023-08-24T02:52:18;18.70;71.00
21734;DHT22;11029;47.820;10.534;2023-08-24T02:54:45;18.70;70.30
21734;DHT22;11029;47.820;10.534;2023-08-24T02:57:12;18.70;70.60
21734;DHT22;11029;47.820;10.534;2023-08-24T02:59:39;18.60;70.00
21734;DHT22;11029;47.820;10.534;2023-08-24T03:02:06;18.60;70.30
21734;DHT22;11029;47.820;10.534;2023-08-24T03:04:33;18.50;71.50
21734;DHT22;11029;47.820;10.534;2023-08-24T03:07:00;18.40;72.50
21734;DHT22;11029;47.820;10.534;2023-08-24T03:09:27;18.50;72.10
21734;DHT22;11029;47.820;10.534;2023-08-24T03:11:54;18.50;71.50
21734;DHT22;11029;47.820;10.534;2023-08-24T03:14:20;18.40;72.00
21734;DHT22;11029;47.820;10.534;2023-08-24T03:16:48;18.30;71.40
21734;DHT22;11029;47.820;10.534;2023-08-24T03:19:16;18.20;71.10
21734;DHT22;11029;47.820;10.534;2023-08-24T03:21:44;18.20;71.10
21734;DHT22;11029;47.820;10.534;2023-08-24T03:24:11;18.20;71.10
21734;DHT22;11029;47.820;10.534;2023-08-24T03:26:38;18.20;71.60
21734;DHT22;11029;47.820;10.534;2023-08-24T03:29:05;18.30;72.20
21734;DHT22;11029;47.820;10.534;2023-08-24T03:31:32;18.20;72.40
21734;DHT22;11029;47.820;10.534;2023-08-24T03:33:59;18.20;72.80
21734;DHT22;11029;47.820;10.534;2023-08-24T03:36:26;18.30;72.80
21734;DHT22;11029;47.820;10.534;2023-08-24T03:38:52;18.20;73.00
21734;DHT22;11029;47.820;10.534;2023-08-24T03:41:19;18.20;73.10
21734;DHT22;11029;47.820;10.534;2023-08-24T03:43:46;18.10;72.30
21734;DHT22;11029;47.820;10.534;2023-08-24T03:46:12;18.00;71.70
21734;DHT22;11029;47.820;10.534;2023-08-24T03:48:41;17.90;71.20
21734;DHT22;11029;47.820;10.534;2023-08-24T03:51:08;17.80;71.60
21734;DHT22;11029;47.820;10.534;2023-08-24T03:53:36;17.80;72.10
21734;DHT22;11029;47.820;10.534;2023-08-24T03:56:02;17.80;72.80
21734;DHT22;11029;47.820;10.534;2023-08-24T03:58:30;17.80;72.50
21734;DHT22;11029;47.820;10.534;2023-08-24T04:00:58;17.70;72.80
21734;DHT22;11029;47.820;10.534;2023-08-24T04:03:25;17.80;72.40
21734;DHT22;11029;47.820;10.534;2023-08-24T04:05:52;17.70;72.80
21734;DHT22;11029;47.820;10.534;2023-08-24T04:08:19;17.80;71.30
21734;DHT22;11029;47.820;10.534;2023-08-24T04:10:45;17.70;71.40
21734;DHT22;11029;47.820;10.534;2023-08-24T04:13:12;17.70;71.10
21734;DHT22;11029;47.820;10.534;2023-08-24T04:15:39;17.60;71.00
21734;DHT22;11029;47.820;10.534;2023-08-24T04:18:06;17.50;71.80
21734;DHT22;11029;47.820;10.534;2023-08-24T04:20:33;17.50;72.10
21734;DHT22;11029;47.820;10.534;2023-08-24T04:23:01;17.50;72.10
21734;DHT22;11029;47.820;10.534;2023-08-24T04:25:29;17.50;72.00
21734;DHT22;11029;47.820;10.534;2023-08-24T04:27:57;17.50;72.10
21734;DHT22;11029;47.820;10.534;2023-08-24T04:30:23;17.60;71.80
21734;DHT22;11029;47.820;10.534;2023-08-24T04:32:51;17.60;72.00
21734;DHT22;11029;47.820;10.534;2023-08-24T04:35:19;17.60;72.30
21734;DHT22;11029;47.820;10.534;2023-08-24T04:37:46;17.70;72.00
21734;DHT22;11029;47.820;10.534;2023-08-24T04:40:14;17.80;72.00
21734;DHT22;11029;47.820;10.534;2023-08-24T04:42:41;17.90;71.90
21734;DHT22;11029;47.820;10.534;2023-08-24T04:45:08;17.90;71.30
21734;DHT22;11029;47.820;10.534;2023-08-24T04:47:35;17.70;71.60
21734;DHT22;11029;47.820;10.534;2023-08-24T04:50:02;17.60;72.60
21734;DHT22;11029;47.820;10.534;2023-08-24T04:52:29;17.50;73.60
21734;DHT22;11029;47.820;10.534;2023-08-24T04:54:56;17.50;73.70
21734;DHT22;11029;47.820;10.534;2023-08-24T04:57:22;17.60;73.30
21734;DHT22;11029;47.820;10.534;2023-08-24T04:59:51;17.60;73.10
21734;DHT22;11029;47.820;10.534;2023-08-24T05:02:18;17.60;73.80
21734;DHT22;11029;47.820;10.534;2023-08-24T05:04:44;17.60;74.20
21734;DHT22;11029;47.820;10.534;2023-08-24T05:07:11;17.60;73.60
21734;DHT22;11029;47.820;10.534;2023-08-24T05:09:38;17.70;72.90
21734;DHT22;11029;47.820;10.534;2023-08-24T05:12:05;17.80;72.70
21734;DHT22;11029;47.820;10.534;2023-08-24T05:14:32;17.80;72.40
21734;DHT22;11029;47.820;10.534;2023-08-24T05:16:59;18.00;72.00
21734;DHT22;11029;47.820;10.534;2023-08-24T05:19:26;18.10;71.70
21734;DHT22;11029;47.820;10.534;2023-08-24T05:21:55;18.20;71.20
21734;DHT22;11029;47.820;10.534;2023-08-24T05:24:22;18.30;71.10
21734;DHT22;11029;47.820;10.534;2023-08-24T05:26:49;18.50;70.70
21734;DHT22;11029;47.820;10.534;2023-08-24T05:29:15;18.60;70.30
21734;DHT22;11029;47.820;10.534;2023-08-24T05:31:42;18.50;70.40
21734;DHT22;11029;47.820;10.534;2023-08-24T05:34:09;18.50;70.60
21734;DHT22;11029;47.820;10.534;2023-08-24T05:36:35;18.60;70.50
21734;DHT22;11029;47.820;10.534;2023-08-24T05:39:02;18.60;70.80
21734;DHT22;11029;47.820;10.534;2023-08-24T05:41:32;18.50;71.50
21734;DHT22;11029;47.820;10.534;2023-08-24T05:43:59;18.60;71.80
21734;DHT22;11029;47.820;10.534;2023-08-24T05:46:26;18.90;71.00
21734;DHT22;11029;47.820;10.534;2023-08-24T05:48:53;19.00;70.40
21734;DHT22;11029;47.820;10.534;2023-08-24T05:51:20;19.10;70.40
21734;DHT22;11029;47.820;10.534;2023-08-24T05:53:47;19.20;70.30
21734;DHT22;11029;47.820;10.534;2023-08-24T05:56:13;19.30;69.80
21734;DHT22;11029;47.820;10.534;2023-08-24T05:58:40;19.50;69.80
21734;DHT22;11029;47.820;10.534;2023-08-24T06:01:07;19.70;69.30
21734;DHT22;11029;47.820;10.534;2023-08-24T06:03:34;19.80;69.20
21734;DHT22;11029;47.820;10.534;2023-08-24T06:06:02;19.90;69.10
21734;DHT22;11029;47.820;10.534;2023-08-24T06:08:30;20.10;69.40
21734;DHT22;11029;47.820;10.534;2023-08-24T06:10:57;20.20;69.60
21734;DHT22;11029;47.820;10.534;2023-08-24T06:13:25;20.40;69.30
21734;DHT22;11029;47.820;10.534;2023-08-24T06:15:53;20.60;68.80
21734;DHT22;11029;47.820;10.534;2023-08-24T06:18:21;20.80;68.40
21734;DHT22;11029;47.820;10.534;2023-08-24T06:20:48;20.90;67.50
21734;DHT22;11029;47.820;10.534;2023-08-24T06:23:18;21.00;67.40
21734;DHT22;11029;47.820;10.534;2023-08-24T06:25:45;21.20;67.50
21734;DHT22;11029;47.820;10.534;2023-08-24T06:28:12;21.10;66.80
21734;DHT22;11029;47.820;10.534;2023-08-24T06:30:41;21.00;67.20
21734;DHT22;11029;47.820;10.534;2023-08-24T06:33:09;20.90;67.10
21734;DHT22;11029;47.820;10.534;2023-08-24T06:35:37;20.80;67.30
21734;DHT22;11029;47.820;10.534;2023-08-24T06:38:04;20.90;67.20
21734;DHT22;11029;47.820;10.534;2023-08-24T06:40:31;21.10;67.00
21734;DHT22;11029;47.820;10.534;2023-08-24T06:42:58;21.20;67.30
21734;DHT22;11029;47.820;10.534;2023-08-24T06:45:25;21.30;67.20
21734;DHT22;11029;47.820;10.534;2023-08-24T06:47:51;21.40;67.10
21734;DHT22;11029;47.820;10.534;2023-08-24T06:50:19;21.50;66.70
21734;DHT22;11029;47.820;10.534;2023-08-24T06:52:46;21.60;66.30
21734;DHT22;11029;47.820;10.534;2023-08-24T06:55:13;21.70;65.70
21734;DHT22;11029;47.820;10.534;2023-08-24T06:57:40;21.90;65.40
21734;DHT22;11029;47.820;10.534;2023-08-24T07:00:07;21.90;65.50
21734;DHT22;11029;47.820;10.534;2023-08-24T07:02:35;22.00;65.00
21734;DHT22;11029;47.820;10.534;2023-08-24T07:05:03;22.10;64.80
21734;DHT22;11029;47.820;10.534;2023-08-24T07:07:35;22.20;63.80
21734;DHT22;11029;47.820;10.534;2023-08-24T07:10:01;22.20;64.10
21734;DHT22;11029;47.820;10.534;2023-08-24T07:12:28;22.30;64.60
21734;DHT22;11029;47.820;10.534;2023-08-24T07:14:55;22.50;63.50
21734;DHT22;11029;47.820;10.534;2023-08-24T07:17:22;22.50;63.80
21734;DHT22;11029;47.820;10.534;2023-08-24T07:19:49;22.70;63.20
21734;DHT22;11029;47.820;10.534;2023-08-24T07:22:15;22.80;63.30
21734;DHT22;11029;47.820;10.534;2023-08-24T07:24:42;23.00;62.70
21734;DHT22;11029;47.820;10.534;2023-08-24T07:27:12;23.20;63.00
21734;DHT22;11029;47.820;10.534;2023-08-24T07:29:39;23.30;62.00
21734;DHT22;11029;47.820;10.534;2023-08-24T07:32:05;23.50;60.50
21734;DHT22;11029;47.820;10.534;2023-08-24T07:34:32;23.60;60.30
21734;DHT22;11029;47.820;10.534;2023-08-24T07:36:59;23.70;59.60
21734;DHT22;11029;47.820;10.534;2023-08-24T07:39:26;23.80;59.40
21734;DHT22;11029;47.820;10.534;2023-08-24T07:41:52;23.90;58.70
21734;DHT22;11029;47.820;10.534;2023-08-24T07:44:19;24.00;58.30
21734;DHT22;11029;47.820;10.534;2023-08-24T07:46:46;24.00;57.60
21734;DHT22;11029;47.820;10.534;2023-08-24T07:49:13;24.10;57.10
21734;DHT22;11029;47.820;10.534;2023-08-24T07:51:40;24.20;57.10
21734;DHT22;11029;47.820;10.534;2023-08-24T07:54:06;24.30;57.60
21734;DHT22;11029;47.820;10.534;2023-08-24T07:56:33;24.40;56.90
21734;DHT22;11029;47.820;10.534;2023-08-24T07:59:00;24.50;56.30
21734;DHT22;11029;47.820;10.534;2023-08-24T08:01:27;24.60;56.00
21734;DHT22;11029;47.820;10.534;2023-08-24T08:03:54;24.80;55.70
21734;DHT22;11029;47.820;10.534;2023-08-24T08:06:20;24.90;55.40
21734;DHT22;11029;47.820;10.534;2023-08-24T08:08:48;25.00;55.70
21734;DHT22;11029;47.820;10.534;2023-08-24T08:11:17;25.20;55.20
21734;DHT22;11029;47.820;10.534;2023-08-24T08:13:43;25.30;54.40
21734;DHT22;11029;47.820;10.534;2023-08-24T08:16:10;25.40;53.10
21734;DHT22;11029;47.820;10.534;2023-08-24T08:18:37;25.50;53.90
21734;DHT22;11029;47.820;10.534;2023-08-24T08:21:14;25.70;54.40
21734;DHT22;11029;47.820;10.534;2023-08-24T08:23:42;25.80;54.40
21734;DHT22;11029;47.820;10.534;2023-08-24T08:26:12;26.00;53.50
21734;DHT22;11029;47.820;10.534;2023-08-24T08:28:42;26.20;53.40
21734;DHT22;11029;47.820;10.534;2023-08-24T08:31:09;26.40;53.50
21734;DHT22;11029;47.820;10.534;2023-08-24T08:33:35;26.60;53.10
21734;DHT22;11029;47.820;10.534;2023-08-24T08:36:02;26.70;53.00
21734;DHT22;11029;47.820;10.534;2023-08-24T08:38:29;26.80;53.40
21734;DHT22;11029;47.820;10.534;2023-08-24T08:40:56;26.90;53.10
21734;DHT22;11029;47.820;10.534;2023-08-24T08:43:28;27.00;52.90
21734;DHT22;11029;47.820;10.534;2023-08-24T08:45:56;27.00;53.30
21734;DHT22;11029;47.820;10.534;2023-08-24T08:48:24;27.00;53.20
21734;DHT22;11029;47.820;10.534;2023-08-24T08:50:52;26.90;53.50
21734;DHT22;11029;47.820;10.534;2023-08-24T08:53:23;27.00;54.70
21734;DHT22;11029;47.820;10.534;2023-08-24T08:55:54;27.00;54.10
21734;DHT22;11029;47.820;10.534;2023-08-24T08:58:21;27.00;54.20
21734;DHT22;11029;47.820;10.534;2023-08-24T09:00:48;27.10;54.70
21734;DHT22;11029;47.820;10.534;2023-08-24T09:03:17;27.10;55.00
21734;DHT22;11029;47.820;10.534;2023-08-24T09:05:44;27.10;55.10
21734;DHT22;11029;47.820;10.534;2023-08-24T09:08:16;27.00;55.70
21734;DHT22;11029;47.820;10.534;2023-08-24T09:10:43;26.80;56.30
21734;DHT22;11029;47.820;10.534;2023-08-24T09:13:10;26.80;56.70
21734;DHT22;11029;47.820;10.534;2023-08-24T09:15:37;26.60;56.90
21734;DHT22;11029;47.820;10.534;2023-08-24T09:18:04;26.60;56.90
21734;DHT22;11029;47.820;10.534;2023-08-24T09:20:31;26.70;57.20
21734;DHT22;11029;47.820;10.534;2023-08-24T09:22:58;26.90;59.30
21734;DHT22;11029;47.820;10.534;2023-08-24T09:25:25;27.00;57.80
21734;DHT22;11029;47.820;10.534;2023-08-24T09:27:58;27.10;55.00
21734;DHT22;11029;47.820;10.534;2023-08-24T09:30:31;27.20;54.50
21734;DHT22;11029;47.820;10.534;2023-08-24T09:33:02;27.40;54.40
21734;DHT22;11029;47.820;10.534;2023-08-24T09:35:29;27.60;54.20
21734;DHT22;11029;47.820;10.534;2023-08-24T09:37:57;27.70;53.30
21734;DHT22;11029;47.820;10.534;2023-08-24T09:40:24;27.80;54.20
21734;DHT22;11029;47.820;10.534;2023-08-24T09:42:52;27.90;53.20
21734;DHT22;11029;47.820;10.534;2023-08-24T09:45:19;27.80;52.80
21734;DHT22;11029;47.820;10.534;2023-08-24T09:47:49;27.90;53.20
21734;DHT22;11029;47.820;10.534;2023-08-24T09:50:16;28.00;53.20
21734;DHT22;11029;47.820;10.534;2023-08-24T09:52:42;28.10;52.30
21734;DHT22;11029;47.820;10.534;2023-08-24T09:55:11;28.20;52.50
21734;DHT22;11029;47.820;10.534;2023-08-24T09:57:39;28.20;51.70
21734;DHT22;11029;47.820;10.534;2023-08-24T10:00:09;28.30;48.70
21734;DHT22;11029;47.820;10.534;2023-08-24T10:02:57;28.30;49.50
21734;DHT22;11029;47.820;10.534;2023-08-24T10:05:26;28.40;50.40
21734;DHT22;11029;47.820;10.534;2023-08-24T10:07:58;28.50;50.40
21734;DHT22;11029;47.820;10.534;2023-08-24T10:10:26;28.50;49.80
21734;DHT22;11029;47.820;10.534;2023-08-24T10:12:59;28.60;50.60
21734;DHT22;11029;47.820;10.534;2023-08-24T10:15:27;28.70;50.60
21734;DHT22;11029;47.820;10.534;2023-08-24T10:17:55;28.70;49.80
21734;DHT22;11029;47.820;10.534;2023-08-24T10:20:22;28.80;49.50
21734;DHT22;11029;47.820;10.534;2023-08-24T10:22:50;28.90;48.70
21734;DHT22;11029;47.820;10.534;2023-08-24T10:25:17;28.90;48.30
21734;DHT22;11029;47.820;10.534;2023-08-24T10:27:48;28.90;49.20
21734;DHT22;11029;47.820;10.534;2023-08-24T10:30:17;29.00;48.20
21734;DHT22;11029;47.820;10.534;2023-08-24T10:32:46;29.00;49.10
21734;DHT22;11029;47.820;10.534;2023-08-24T10:35:16;29.10;48.10
21734;DHT22;11029;47.820;10.534;2023-08-24T10:37:44;29.30;48.90
21734;DHT22;11029;47.820;10.534;2023-08-24T10:40:11;29.40;47.70
21734;DHT22;11029;47.820;10.534;2023-08-24T10:42:45;29.50;46.80
21734;DHT22;11029;47.820;10.534;2023-08-24T10:45:15;29.70;46.60
21734;DHT22;11029;47.820;10.534;2023-08-24T10:47:51;29.70;44.50
21734;DHT22;11029;47.820;10.534;2023-08-24T10:50:18;29.80;43.50
21734;DHT22;11029;47.820;10.534;2023-08-24T10:52:44;29.90;43.70
21734;DHT22;11029;47.820;10.534;2023-08-24T10:55:21;30.00;44.50
21734;DHT22;11029;47.820;10.534;2023-08-24T10:57:58;30.10;43.60
21734;DHT22;11029;47.820;10.534;2023-08-24T11:00:26;30.10;43.50
21734;DHT22;11029;47.820;10.534;2023-08-24T11:02:53;30.20;43.10
21734;DHT22;11029;47.820;10.534;2023-08-24T11:05:29;30.20;43.10
21734;DHT22;11029;47.820;10.534;2023-08-24T11:07:58;30.30;43.20
21734;DHT22;11029;47.820;10.534;2023-08-24T11:18:22;30.60;43.30
21734;DHT22;11029;47.820;10.534;2023-08-24T11:20:50;30.70;43.80
21734;DHT22;11029;47.820;10.534;2023-08-24T11:23:18;30.80;43.80
21734;DHT22;11029;47.820;10.534;2023-08-24T11:25:46;30.90;43.70
21734;DHT22;11029;47.820;10.534;2023-08-24T11:28:19;30.90;43.90
21734;DHT22;11029;47.820;10.534;2023-08-24T11:30:46;30.90;42.10
21734;DHT22;11029;47.820;10.534;2023-08-24T11:33:13;31.00;42.50
21734;DHT22;11029;47.820;10.534;2023-08-24T11:35:44;31.10;41.50
21734;DHT22;11029;47.820;10.534;2023-08-24T11:38:11;31.20;42.00
21734;DHT22;11029;47.820;10.534;2023-08-24T11:40:38;31.30;40.00
21734;DHT22;11029;47.820;10.534;2023-08-24T11:43:05;31.40;39.60
21734;DHT22;11029;47.820;10.534;2023-08-24T11:45:33;31.50;39.40
21734;DHT22;11029;47.820;10.534;2023-08-24T11:48:01;31.50;39.20
21734;DHT22;11029;47.820;10.534;2023-08-24T11:50:28;31.60;39.40
21734;DHT22;11029;47.820;10.534;2023-08-24T11:52:55;31.80;38.40
21734;DHT22;11029;47.820;10.534;2023-08-24T11:55:22;31.80;37.90
21734;DHT22;11029;47.820;10.534;2023-08-24T11:57:50;31.90;37.60
21734;DHT22;11029;47.820;10.534;2023-08-24T12:00:18;32.10;37.70
21734;DHT22;11029;47.820;10.534;2023-08-24T12:02:46;32.20;36.70
21734;DHT22;11029;47.820;10.534;2023-08-24T12:07:49;32.30;35.70
21734;DHT22;11029;47.820;10.534;2023-08-24T12:10:16;32.00;35.40
21734;DHT22;11029;47.820;10.534;2023-08-24T12:12:43;31.70;36.10
21734;DHT22;11029;47.820;10.534;2023-08-24T12:15:17;31.70;36.50
21734;DHT22;11029;47.820;10.534;2023-08-24T12:17:44;31.70;36.60
21734;DHT22;11029;47.820;10.534;2023-08-24T12:20:21;32.00;37.00
21734;DHT22;11029;47.820;10.534;2023-08-24T12:22:52;32.10;36.90
21734;DHT22;11029;47.820;10.534;2023-08-24T12:25:22;32.10;37.40
21734;DHT22;11029;47.820;10.534;2023-08-24T12:27:50;32.20;37.00
21734;DHT22;11029;47.820;10.534;2023-08-24T12:30:17;32.20;37.50
21734;DHT22;11029;47.820;10.534;2023-08-24T12:32:45;32.30;36.80
21734;DHT22;11029;47.820;10.534;2023-08-24T12:35:13;32.30;36.50
21734;DHT22;11029;47.820;10.534;2023-08-24T12:37:40;32.40;35.80
21734;DHT22;11029;47.820;10.534;2023-08-24T12:40:07;32.50;36.00
21734;DHT22;11029;47.820;10.534;2023-08-24T12:42:35;32.50;38.10
21734;DHT22;11029;47.820;10.534;2023-08-24T12:45:04;32.70;36.90
21734;DHT22;11029;47.820;10.534;2023-08-24T12:47:31;32.80;38.30
21734;DHT22;11029;47.820;10.534;2023-08-24T12:49:58;32.80;39.10
21734;DHT22;11029;47.820;10.534;2023-08-24T12:52:24;32.60;38.50
21734;DHT22;11029;47.820;10.534;2023-08-24T12:54:51;32.60;37.80
21734;DHT22;11029;47.820;10.534;2023-08-24T12:57:18;32.60;37.30
21734;DHT22;11029;47.820;10.534;2023-08-24T12:59:47;32.80;37.40
21734;DHT22;11029;47.820;10.534;2023-08-24T13:02:14;32.80;36.30
21734;DHT22;11029;47.820;10.534;2023-08-24T13:04:55;32.80;36.90
21734;DHT22;11029;47.820;10.534;2023-08-24T13:07:24;33.00;38.40
21734;DHT22;11029;47.820;10.534;2023-08-24T13:09:50;33.00;36.70
21734;DHT22;11029;47.820;10.534;2023-08-24T13:12:20;32.90;36.40
21734;DHT22;11029;47.820;10.534;2023-08-24T13:14:48;33.10;37.10
21734;DHT22;11029;47.820;10.534;2023-08-24T13:17:14;33.10;37.80
21734;DHT22;11029;47.820;10.534;2023-08-24T13:19:41;33.30;39.40
21734;DHT22;11029;47.820;10.534;2023-08-24T13:22:08;33.40;38.10
21734;DHT22;11029;47.820;10.534;2023-08-24T13:24:34;33.50;37.60
21734;DHT22;11029;47.820;10.534;2023-08-24T13:27:01;33.80;36.80
21734;DHT22;11029;47.820;10.534;2023-08-24T13:29:29;34.20;36.60
21734;DHT22;11029;47.820;10.534;2023-08-24T13:31:56;33.90;34.60
21734;DHT22;11029;47.820;10.534;2023-08-24T13:34:22;33.50;36.70
21734;DHT22;11029;47.820;10.534;2023-08-24T13:36:49;33.40;35.80
21734;DHT22;11029;47.820;10.534;2023-08-24T13:39:16;33.50;36.50
21734;DHT22;11029;47.820;10.534;2023-08-24T13:41:43;33.50;36.90
21734;DHT22;11029;47.820;10.534;2023-08-24T13:44:10;33.70;36.70
21734;DHT22;11029;47.820;10.534;2023-08-24T13:46:37;34.20;36.20
21734;DHT22;11029;47.820;10.534;2023-08-24T13:49:03;34.40;36.00
21734;DHT22;11029;47.820;10.534;2023-08-24T13:51:30;34.30;35.80
21734;DHT22;11029;47.820;10.534;2023-08-24T13:53:57;34.40;35.10
21734;DHT22;11029;47.820;10.534;2023-08-24T13:56:23;34.60;35.30
21734;DHT22;11029;47.820;10.534;2023-08-24T13:58:50;34.80;35.20
21734;DHT22;11029;47.820;10.534;2023-08-24T14:01:17;34.60;36.00
21734;DHT22;11029;47.820;10.534;2023-08-24T14:03:44;34.70;35.80
21734;DHT22;11029;47.820;10.534;2023-08-24T14:06:11;34.30;36.90
21734;DHT22;11029;47.820;10.534;2023-08-24T14:08:37;34.00;37.00
21734;DHT22;11029;47.820;10.534;2023-08-24T14:11:04;33.80;37.00
21734;DHT22;11029;47.820;10.534;2023-08-24T14:13:31;34.00;37.20
21734;DHT22;11029;47.820;10.534;2023-08-24T14:15:58;34.40;35.70
21734;DHT22;11029;47.820;10.534;2023-08-24T14:18:24;34.30;35.20
21734;DHT22;11029;47.820;10.534;2023-08-24T14:20:51;34.30;37.30
21734;DHT22;11029;47.820;10.534;2023-08-24T14:23:18;34.30;35.70
21734;DHT22;11029;47.820;10.534;2023-08-24T14:25:45;34.10;34.60
21734;DHT22;11029;47.820;10.534;2023-08-24T14:28:12;34.00;36.30
21734;DHT22;11029;47.820;10.534;2023-08-24T14:30:40;33.80;38.00
21734;DHT22;11029;47.820;10.534;2023-08-24T14:33:06;33.30;36.30
21734;DHT22;11029;47.820;10.534;2023-08-24T14:35:33;33.40;36.30
21734;DHT22;11029;47.820;10.534;2023-08-24T14:38:00;33.30;37.10
21734;DHT22;11029;47.820;10.534;2023-08-24T14:40:26;33.20;37.20
21734;DHT22;11029;47.820;10.534;2023-08-24T14:42:53;33.40;36.40
21734;DHT22;11029;47.820;10.534;2023-08-24T14:45:21;33.50;36.70
21734;DHT22;11029;47.820;10.534;2023-08-24T14:47:48;33.60;35.00
21734;DHT22;11029;47.820;10.534;2023-08-24T14:50:15;33.40;35.30
21734;DHT22;11029;47.820;10.534;2023-08-24T14:52:41;33.50;33.60
21734;DHT22;11029;47.820;10.534;2023-08-24T14:55:08;33.60;34.60
21734;DHT22;11029;47.820;10.534;2023-08-24T14:57:36;33.90;34.20
21734;DHT22;11029;47.820;10.534;2023-08-24T15:00:03;34.00;35.50
21734;DHT22;11029;47.820;10.534;2023-08-24T15:02:31;34.00;35.10
21734;DHT22;11029;47.820;10.534;2023-08-24T15:04:59;34.00;35.40
21734;DHT22;11029;47.820;10.534;2023-08-24T15:07:26;34.10;35.00
21734;DHT22;11029;47.820;10.534;2023-08-24T15:09:52;34.20;34.60
21734;DHT22;11029;47.820;10.534;2023-08-24T15:12:21;34.40;33.90
21734;DHT22;11029;47.820;10.534;2023-08-24T15:14:58;34.50;32.60
21734;DHT22;11029;47.820;10.534;2023-08-24T15:17:25;34.50;34.00
21734;DHT22;11029;47.820;10.534;2023-08-24T15:19:52;34.80;31.90
21734;DHT22;11029;47.820;10.534;2023-08-24T15:22:18;35.00;32.70
21734;DHT22;11029;47.820;10.534;2023-08-24T15:24:45;35.60;31.10
21734;DHT22;11029;47.820;10.534;2023-08-24T15:27:12;35.70;31.90
21734;DHT22;11029;47.820;10.534;2023-08-24T15:29:39;35.80;31.60
21734;DHT22;11029;47.820;10.534;2023-08-24T15:32:05;35.70;32.10
21734;DHT22;11029;47.820;10.534;2023-08-24T15:34:32;35.70;32.00
21734;DHT22;11029;47.820;10.534;2023-08-24T15:36:59;36.10;31.70
21734;DHT22;11029;47.820;10.534;2023-08-24T15:39:26;36.10;32.00